createdAt,value
2018-01-12T00:00:12.643Z,57.53
2018-01-12T00:02:40.250Z,81.63
2018-01-12T00:05:07.782Z,70.40
2018-01-12T00:07:35.400Z,69.83
2018-01-12T00:10:02.938Z,65.47
2018-01-12T00:12:30.485Z,57.10
2018-01-12T00:14:58.043Z,59.73
2018-01-12T00:17:25.582Z,57.73
2018-01-12T00:19:53.163Z,61.57
2018-01-12T00:22:20.702Z,60.83
2018-01-12T00:24:48.242Z,53.30
2018-01-12T00:27:15.850Z,51.63
2018-01-12T00:29:43.446Z,60.87
2018-01-12T00:32:11.116Z,55.57
2018-01-12T00:34:38.711Z,50.37
2018-01-12T00:37:06.310Z,52.90
2018-01-12T00:39:33.962Z,49.97
2018-01-12T00:42:01.551Z,48.20
2018-01-12T00:44:29.215Z,49.97
2018-01-12T00:46:56.799Z,53.53
2018-01-12T00:49:24.379Z,54.13
2018-01-12T00:51:52.023Z,51.50
2018-01-12T00:54:19.655Z,57.27
2018-01-12T00:56:47.287Z,49.17
2018-01-12T00:59:14.866Z,61.30
2018-01-12T01:01:42.408Z,50.33
2018-01-12T01:04:10.011Z,54.50
2018-01-12T01:06:37.550Z,62.83
2018-01-12T01:09:05.198Z,55.90
2018-01-12T01:11:32.795Z,62.20
2018-01-12T01:14:00.334Z,58.53
2018-01-12T01:16:27.874Z,60.30
2018-01-12T01:18:55.471Z,53.47
2018-01-12T01:21:23.102Z,55.67
2018-01-12T01:23:50.750Z,53.30
2018-01-12T01:26:18.342Z,56.37
2018-01-12T01:28:45.950Z,55.57
2018-01-12T01:31:13.490Z,50.80
2018-01-12T01:33:41.071Z,56.57
2018-01-12T01:36:08.668Z,60.23
2018-01-12T01:38:36.210Z,55.20
2018-01-12T01:41:03.760Z,46.20
2018-01-12T01:43:31.302Z,49.13
2018-01-12T01:45:58.942Z,38.20
2018-01-12T01:48:38.522Z,52.70
2018-01-12T01:51:06.102Z,51.10
2018-01-12T01:53:33.644Z,47.77
2018-01-12T01:56:01.244Z,68.13
2018-01-12T01:58:28.795Z,48.73
2018-01-12T02:00:56.400Z,48.03
2018-01-12T02:03:24.075Z,48.43
2018-01-12T02:05:51.676Z,42.00
2018-01-12T02:08:19.303Z,50.43
2018-01-12T02:10:46.910Z,52.60
2018-01-12T02:13:14.450Z,45.60
2018-01-12T02:15:42.095Z,47.50
2018-01-12T02:18:09.694Z,52.07
2018-01-12T02:20:37.234Z,53.93
2018-01-12T02:23:04.844Z,39.03
2018-01-12T02:25:32.389Z,37.73
2018-01-12T02:27:59.989Z,35.60
2018-01-12T02:30:27.532Z,40.17
2018-01-12T02:32:55.070Z,32.70
2018-01-12T02:35:22.619Z,41.73
2018-01-12T02:37:50.158Z,38.23
2018-01-12T02:40:17.799Z,38.70
2018-01-12T02:42:45.399Z,36.20
2018-01-12T02:45:12.998Z,39.80
2018-01-12T02:47:40.586Z,50.80
2018-01-12T02:50:08.132Z,47.60
2018-01-12T02:52:35.716Z,42.20
2018-01-12T02:55:03.259Z,47.27
2018-01-12T02:57:30.802Z,49.50
2018-01-12T02:59:58.360Z,46.60
2018-01-12T03:02:25.894Z,45.63
2018-01-12T03:04:53.543Z,45.03
2018-01-12T03:07:21.140Z,43.30
2018-01-12T03:09:48.674Z,52.80
2018-01-12T03:12:16.223Z,43.83
2018-01-12T03:14:43.760Z,47.63
2018-01-12T03:17:11.347Z,42.87
2018-01-12T03:19:38.883Z,50.90
2018-01-12T03:22:06.478Z,45.10
2018-01-12T03:24:34.022Z,47.47
2018-01-12T03:27:01.566Z,42.20
2018-01-12T03:29:29.153Z,42.20
2018-01-12T03:31:56.702Z,49.40
2018-01-12T03:34:24.348Z,51.73
2018-01-12T03:36:51.900Z,37.80
2018-01-12T03:39:19.443Z,50.27
2018-01-12T03:41:47.031Z,48.97
2018-01-12T03:44:14.578Z,47.70
2018-01-12T03:46:42.118Z,47.07
2018-01-12T03:49:09.722Z,46.43
2018-01-12T03:51:37.266Z,63.40
2018-01-12T03:54:04.850Z,80.53
2018-01-12T03:56:32.393Z,66.60
2018-01-12T03:58:59.934Z,48.27
2018-01-12T04:01:27.493Z,45.53
2018-01-12T04:03:55.034Z,38.90
2018-01-12T04:06:22.682Z,47.30
2018-01-12T04:08:50.287Z,46.77
2018-01-12T04:11:17.895Z,41.77
2018-01-12T04:13:45.503Z,41.97
2018-01-12T04:16:13.103Z,37.13
2018-01-12T04:18:40.692Z,49.73
2018-01-12T04:21:08.236Z,37.93
2018-01-12T04:23:35.841Z,37.73
2018-01-12T04:26:03.423Z,42.30
2018-01-12T04:28:30.963Z,52.83
2018-01-12T04:30:58.591Z,38.93
2018-01-12T04:33:26.191Z,56.80
2018-01-12T04:35:53.736Z,48.23
2018-01-12T04:38:21.289Z,48.60
2018-01-12T04:40:48.890Z,46.20
2018-01-12T04:43:16.483Z,38.17
2018-01-12T04:45:44.026Z,49.57
2018-01-12T04:48:11.567Z,61.10
2018-01-12T04:50:39.151Z,43.03
2018-01-12T04:53:06.691Z,45.17
2018-01-12T04:55:34.270Z,41.60
2018-01-12T04:58:01.871Z,39.43
2018-01-12T05:00:29.420Z,62.93
2018-01-12T05:02:56.980Z,56.97
2018-01-12T05:05:24.526Z,64.67
2018-01-12T05:07:52.138Z,60.37
2018-01-12T05:10:19.748Z,50.17
2018-01-12T05:12:47.290Z,48.80
2018-01-12T05:15:14.850Z,59.70
2018-01-12T05:17:42.469Z,42.73
2018-01-12T05:20:10.199Z,48.13
2018-01-12T05:22:37.749Z,49.03
2018-01-12T05:25:05.347Z,47.20
2018-01-12T05:27:32.956Z,54.90
2018-01-12T05:30:00.524Z,58.83
2018-01-12T05:32:28.175Z,74.50
2018-01-12T05:34:55.771Z,62.43
2018-01-12T05:37:23.344Z,69.77
2018-01-12T05:39:50.963Z,80.40
2018-01-12T05:42:18.558Z,80.93
2018-01-12T05:44:46.143Z,75.97
2018-01-12T05:47:13.743Z,72.70
2018-01-12T05:49:41.340Z,74.60
2018-01-12T05:52:08.951Z,67.30
2018-01-12T05:54:36.495Z,72.30
2018-01-12T05:57:04.086Z,79.90
2018-01-12T05:59:31.622Z,70.87
2018-01-12T06:02:11.077Z,65.53
2018-01-12T06:07:43.657Z,50.53
2018-01-12T06:10:11.190Z,52.00
2018-01-12T06:12:38.734Z,51.23
2018-01-12T06:15:06.374Z,60.67
2018-01-12T06:17:33.920Z,53.77
2018-01-12T06:20:01.519Z,55.53
2018-01-12T06:22:29.127Z,54.90
2018-01-12T06:24:56.668Z,66.03
2018-01-12T06:27:24.212Z,57.83
2018-01-12T06:29:51.804Z,59.03
2018-01-12T06:32:19.400Z,71.00
2018-01-12T06:34:46.937Z,78.97
2018-01-12T06:37:14.522Z,124.97
2018-01-12T06:39:42.065Z,58.77
2018-01-12T06:42:09.663Z,48.10
2018-01-12T06:44:37.325Z,48.53
2018-01-12T06:47:04.866Z,51.13
2018-01-12T06:49:32.410Z,75.30
2018-01-12T06:51:59.999Z,66.77
2018-01-12T06:54:27.542Z,69.33
2018-01-12T06:56:55.080Z,67.13
2018-01-12T06:59:22.686Z,48.77
2018-01-12T07:01:50.290Z,40.63
2018-01-12T07:04:17.838Z,40.13
2018-01-12T07:06:45.426Z,39.93
2018-01-12T07:09:13.020Z,37.40
2018-01-12T07:11:40.663Z,41.10
2018-01-12T07:14:08.367Z,42.23
2018-01-12T07:16:35.975Z,48.67
2018-01-12T07:19:03.515Z,45.73
2018-01-12T07:21:43.073Z,53.83
2018-01-12T07:24:10.622Z,44.07
2018-01-12T07:26:38.167Z,49.83
2018-01-12T07:29:05.759Z,40.20
2018-01-12T07:31:33.367Z,40.97
2018-01-12T07:34:01.012Z,42.23
2018-01-12T07:36:28.554Z,40.67
2018-01-12T07:38:56.094Z,41.67
2018-01-12T07:41:23.638Z,48.90
2018-01-12T07:43:51.174Z,40.87
2018-01-12T07:46:18.815Z,53.30
2018-01-12T07:48:46.360Z,54.03
2018-01-12T07:51:13.955Z,50.57
2018-01-12T07:53:41.566Z,41.43
2018-01-12T07:56:09.111Z,40.70
2018-01-12T07:58:36.702Z,50.33
2018-01-12T08:01:09.690Z,52.97
2018-01-12T08:03:37.243Z,66.70
2018-01-12T08:06:04.803Z,55.23
2018-01-12T08:08:32.346Z,63.40
2018-01-12T08:10:59.987Z,70.40
2018-01-12T08:13:27.589Z,41.97
2018-01-12T08:15:55.126Z,36.07
2018-01-12T08:18:22.731Z,36.87
2018-01-12T08:20:50.326Z,37.40
2018-01-12T08:23:17.907Z,42.60
2018-01-12T08:25:45.448Z,44.60
2018-01-12T08:28:12.990Z,38.70
2018-01-12T08:30:40.599Z,36.60
2018-01-12T08:33:08.131Z,41.87
2018-01-12T08:35:35.790Z,34.00
2018-01-12T08:38:03.322Z,28.53
2018-01-12T08:40:30.862Z,35.30
2018-01-12T08:42:58.414Z,40.43
2018-01-12T08:45:26.013Z,43.10
2018-01-12T08:47:53.595Z,34.27
2018-01-12T08:50:21.130Z,57.00
2018-01-12T08:52:48.670Z,42.30
2018-01-12T08:55:16.267Z,45.50
2018-01-12T08:57:43.892Z,41.80
2018-01-12T09:00:11.478Z,30.43
2018-01-12T09:02:39.084Z,35.20
2018-01-12T09:05:06.623Z,40.10
2018-01-12T09:07:34.171Z,42.10
2018-01-12T09:10:01.711Z,48.17
2018-01-12T09:12:29.294Z,70.57
2018-01-12T09:14:56.910Z,62.53
2018-01-12T09:17:31.247Z,54.73
2018-01-12T09:20:10.400Z,54.10
2018-01-12T09:22:47.574Z,59.77
2018-01-12T09:25:26.558Z,45.27
2018-01-12T09:27:54.146Z,47.40
2018-01-12T09:30:21.686Z,47.50
2018-01-12T09:32:50.241Z,60.37
2018-01-12T09:35:17.796Z,67.27
2018-01-12T09:37:45.391Z,55.63
2018-01-12T09:43:17.831Z,50.47
2018-01-12T09:45:45.501Z,37.93
2018-01-12T09:48:37.882Z,31.10
2018-01-12T09:51:05.442Z,34.53
2018-01-12T09:53:33.046Z,32.23
2018-01-12T09:56:00.629Z,33.27
2018-01-12T09:58:28.179Z,32.50
2018-01-12T10:00:57.526Z,39.03
2018-01-12T10:03:25.144Z,31.97
2018-01-12T10:05:52.678Z,34.80
2018-01-12T10:08:26.214Z,37.27
2018-01-12T10:10:53.754Z,27.97
2018-01-12T10:13:21.293Z,36.33
2018-01-12T10:15:48.827Z,33.30
2018-01-12T10:21:35.897Z,36.20
2018-01-12T10:24:03.474Z,43.07
2018-01-12T10:26:31.010Z,39.70
2018-01-12T10:29:07.590Z,38.10
2018-01-12T10:31:46.866Z,32.90
2018-01-12T10:37:22.494Z,33.97
2018-01-12T10:40:02.178Z,74.97
2018-01-12T10:42:29.746Z,60.17
2018-01-12T10:44:57.339Z,65.67
2018-01-12T10:47:27.913Z,55.60
2018-01-12T10:53:06.182Z,42.70
2018-01-12T10:55:33.778Z,37.20
2018-01-12T10:58:01.450Z,55.03
2018-01-12T11:00:31.894Z,43.47
2018-01-12T11:02:59.439Z,55.43
2018-01-12T11:05:27.107Z,55.13
2018-01-12T11:07:54.702Z,34.83
2018-01-12T11:10:22.329Z,67.57
2018-01-12T11:12:49.918Z,62.33
2018-01-12T11:15:17.465Z,64.33
2018-01-12T11:17:44.998Z,55.40
2018-01-12T11:20:12.590Z,46.17
2018-01-12T11:22:40.130Z,60.23
2018-01-12T11:25:07.677Z,50.33
2018-01-12T11:27:35.279Z,46.70
2018-01-12T11:30:02.834Z,46.23
2018-01-12T11:32:30.430Z,45.53
2018-01-12T11:34:58.022Z,51.03
2018-01-12T11:37:25.622Z,61.03
2018-01-12T11:39:53.185Z,51.87
2018-01-12T11:42:20.770Z,42.47
2018-01-12T11:44:48.310Z,43.10
2018-01-12T11:47:15.913Z,82.40
2018-01-12T11:49:43.494Z,84.97
2018-01-12T11:52:11.037Z,85.50
2018-01-12T11:54:38.579Z,63.77
2018-01-12T11:57:06.214Z,50.80
2018-01-12T11:59:33.791Z,49.50
2018-01-12T12:02:01.379Z,44.17
2018-01-12T12:04:28.962Z,48.07
2018-01-12T12:06:56.506Z,52.67
2018-01-12T12:09:24.056Z,49.33
2018-01-12T12:11:51.674Z,52.30
2018-01-12T12:14:19.250Z,45.37
2018-01-12T12:16:46.794Z,42.87
2018-01-12T12:19:14.381Z,38.00
2018-01-12T12:21:41.922Z,52.70
2018-01-12T12:24:09.467Z,65.43
2018-01-12T12:26:37.116Z,60.50
2018-01-12T12:29:04.667Z,65.83
2018-01-12T12:31:32.262Z,53.23
2018-01-12T12:33:59.848Z,50.20
2018-01-12T12:36:27.384Z,59.93
2018-01-12T12:38:54.930Z,49.90
2018-01-12T12:41:22.538Z,43.03
2018-01-12T12:43:50.099Z,29.13
2018-01-12T12:46:17.633Z,20.43
2018-01-12T12:48:45.211Z,34.00
2018-01-12T12:51:12.786Z,34.60
2018-01-12T12:53:40.318Z,46.00
2018-01-12T12:56:07.954Z,41.03
2018-01-12T12:58:35.494Z,45.93
2018-01-12T13:01:03.026Z,35.40
2018-01-12T13:03:30.639Z,48.20
2018-01-12T13:05:58.323Z,49.23
2018-01-12T13:08:25.947Z,42.00
2018-01-12T13:10:53.490Z,44.43
2018-01-12T13:13:21.039Z,49.07
2018-01-12T13:15:48.591Z,49.80
2018-01-12T13:18:16.237Z,60.63
2018-01-12T13:20:43.822Z,55.10
2018-01-12T13:23:11.467Z,68.17
2018-01-12T13:25:39.067Z,61.27
2018-01-12T13:28:06.613Z,63.07
2018-01-12T13:30:34.150Z,59.43
2018-01-12T13:33:01.730Z,61.30
2018-01-12T13:35:29.267Z,59.63
2018-01-12T13:37:56.807Z,73.90
2018-01-12T13:40:24.350Z,73.17
2018-01-12T13:42:51.894Z,73.40
2018-01-12T13:45:19.583Z,77.83
2018-01-12T13:47:47.179Z,73.23
2018-01-12T13:50:14.758Z,83.70
2018-01-12T13:52:42.309Z,82.20
2018-01-12T13:55:09.848Z,78.90
2018-01-12T13:57:37.499Z,84.13
2018-01-12T14:00:05.033Z,70.20
2018-01-12T14:02:32.581Z,62.53
2018-01-12T14:05:00.186Z,51.10
2018-01-12T14:07:27.806Z,59.67
2018-01-12T14:09:55.454Z,92.07
2018-01-12T14:12:22.990Z,82.33
2018-01-12T14:14:50.533Z,84.70
2018-01-12T14:17:18.082Z,58.60
2018-01-12T14:19:45.618Z,70.10
2018-01-12T14:22:13.202Z,58.80
2018-01-12T14:24:40.739Z,61.97
2018-01-12T14:27:08.338Z,49.73
2018-01-12T14:29:35.877Z,53.80
2018-01-12T14:32:03.426Z,57.53
2018-01-12T14:34:31.054Z,46.03
2018-01-12T14:36:58.601Z,34.13
2018-01-12T14:39:26.140Z,22.30
2018-01-12T14:41:53.686Z,16.07
2018-01-12T14:44:21.223Z,13.27
2018-01-12T14:46:48.811Z,11.67
2018-01-12T14:49:16.419Z,30.53
2018-01-12T14:51:44.017Z,20.97
2018-01-12T14:54:11.618Z,24.80
2018-01-12T14:56:39.158Z,23.30
2018-01-12T14:59:06.803Z,17.90
2018-01-12T15:01:34.342Z,20.13
2018-01-12T15:04:01.947Z,19.17
2018-01-12T15:06:29.585Z,14.60
2018-01-12T15:08:57.178Z,17.63
2018-01-12T15:11:24.818Z,14.50
2018-01-12T15:13:52.352Z,13.97
2018-01-12T15:16:20.030Z,69.30
2018-01-12T15:18:47.567Z,11.10
2018-01-12T15:21:15.094Z,8.47
2018-01-12T15:23:42.699Z,11.43
2018-01-12T15:26:10.229Z,12.27
2018-01-12T15:28:37.846Z,6.60
2018-01-12T15:31:05.451Z,8.70
2018-01-12T15:33:33.054Z,5.90
2018-01-12T15:36:00.701Z,7.13
2018-01-12T15:38:28.295Z,5.97
2018-01-12T15:40:55.886Z,9.67
2018-01-12T15:43:23.486Z,6.57
2018-01-12T15:45:51.014Z,8.17
2018-01-12T15:48:18.602Z,6.10
2018-01-12T15:50:46.135Z,6.83
2018-01-12T15:53:13.728Z,8.83
2018-01-12T15:55:41.270Z,7.87
2018-01-12T15:58:08.863Z,8.73
2018-01-12T16:00:36.446Z,9.50
2018-01-12T16:03:03.982Z,7.03
2018-01-12T16:05:31.518Z,7.30
2018-01-12T16:07:59.055Z,4.20
2018-01-12T16:10:26.645Z,5.17
2018-01-12T16:12:54.415Z,5.00
2018-01-12T16:15:21.962Z,5.93
2018-01-12T16:17:49.493Z,7.40
2018-01-12T16:20:17.046Z,6.87
2018-01-12T16:22:44.638Z,4.47
2018-01-12T16:25:12.213Z,5.43
2018-01-12T16:27:39.750Z,5.90
2018-01-12T16:30:07.354Z,5.20
2018-01-12T16:32:35.002Z,4.90
2018-01-12T16:35:02.518Z,4.20
2018-01-12T16:37:30.158Z,3.60
2018-01-12T16:39:57.690Z,6.93
2018-01-12T16:42:25.284Z,7.73
2018-01-12T16:44:52.879Z,4.97
2018-01-12T16:47:20.407Z,4.60
2018-01-12T16:49:48.046Z,9.47
2018-01-12T16:52:15.574Z,7.50
2018-01-12T16:54:43.103Z,8.90
2018-01-12T16:57:10.644Z,6.07
2018-01-12T16:59:38.171Z,6.57
2018-01-12T17:02:05.746Z,6.43
2018-01-12T17:04:33.283Z,6.00
2018-01-12T17:07:00.814Z,6.03
2018-01-12T17:09:28.350Z,9.03
2018-01-12T17:11:55.884Z,9.03
2018-01-12T17:14:23.483Z,8.53
2018-01-12T17:16:51.054Z,7.60
2018-01-12T17:19:18.647Z,6.40
2018-01-12T17:21:46.193Z,7.53
2018-01-12T17:24:13.723Z,6.33
2018-01-12T17:26:41.310Z,5.30
2018-01-12T17:29:08.893Z,8.70
2018-01-12T17:31:36.421Z,9.47
2018-01-12T17:34:04.064Z,10.23
2018-01-12T17:36:31.613Z,10.57
2018-01-12T17:38:59.198Z,11.20
2018-01-12T17:41:26.740Z,12.03
2018-01-12T17:43:54.275Z,10.70
2018-01-12T17:46:21.857Z,13.50
2018-01-12T17:48:49.390Z,17.30
2018-01-12T17:51:17.032Z,13.80
2018-01-12T17:53:44.566Z,12.10
2018-01-12T17:56:12.216Z,18.93
2018-01-12T17:58:39.758Z,15.60
2018-01-12T18:01:07.290Z,12.10
2018-01-12T18:03:34.898Z,18.27
2018-01-12T18:06:02.439Z,15.70
2018-01-12T18:08:29.973Z,13.67
2018-01-12T18:10:57.652Z,10.77
2018-01-12T18:13:25.232Z,16.17
2018-01-12T18:15:52.832Z,13.00
2018-01-12T18:18:20.366Z,18.50
2018-01-12T18:20:47.899Z,16.07
2018-01-12T18:23:15.508Z,15.13
2018-01-12T18:25:43.133Z,13.10
2018-01-12T18:28:10.717Z,15.37
2018-01-12T18:30:38.250Z,11.07
2018-01-12T18:33:05.847Z,11.00
2018-01-12T18:35:33.487Z,15.70
2018-01-12T18:38:01.083Z,15.37
2018-01-12T18:40:28.671Z,13.83
2018-01-12T18:42:56.212Z,12.70
2018-01-12T18:45:23.812Z,13.53
2018-01-12T18:47:51.415Z,12.60
2018-01-12T18:50:19.011Z,16.93
2018-01-12T18:52:46.609Z,9.07
2018-01-12T18:55:14.149Z,11.50
2018-01-12T18:57:41.686Z,12.80
2018-01-12T19:00:09.383Z,11.97
2018-01-12T19:02:37.007Z,13.90
2018-01-12T19:05:04.670Z,12.73
2018-01-12T19:07:32.237Z,10.70
2018-01-12T19:09:59.769Z,14.27
2018-01-12T19:12:27.407Z,12.00
2018-01-12T19:14:55.007Z,9.10
2018-01-12T19:17:22.594Z,20.27
2018-01-12T19:19:50.129Z,14.33
2018-01-12T19:22:17.674Z,14.33
2018-01-12T19:24:45.282Z,13.97
2018-01-12T19:27:12.826Z,11.10
2018-01-12T19:29:40.520Z,13.47
2018-01-12T19:32:08.066Z,16.53
2018-01-12T19:34:35.602Z,12.63
2018-01-12T19:37:03.158Z,12.90
2018-01-12T19:39:30.690Z,16.90
2018-01-12T19:41:58.274Z,14.17
2018-01-12T19:44:25.871Z,11.80
2018-01-12T19:46:53.416Z,14.97
2018-01-12T19:49:21.019Z,10.23
2018-01-12T19:51:48.612Z,20.17
2018-01-12T19:54:20.271Z,13.83
2018-01-12T19:56:47.863Z,13.63
2018-01-12T19:59:15.466Z,14.17
2018-01-12T20:01:43.014Z,14.73
2018-01-12T20:04:10.548Z,11.93
2018-01-12T20:06:38.167Z,18.13
2018-01-12T20:09:06.614Z,21.30
2018-01-12T20:11:34.150Z,16.77
2018-01-12T20:14:02.591Z,17.63
2018-01-12T20:16:30.136Z,17.30
2018-01-12T20:18:57.779Z,17.70
2018-01-12T20:21:25.366Z,15.10
2018-01-12T20:23:52.970Z,12.27
2018-01-12T20:26:20.516Z,15.30
2018-01-12T20:28:48.050Z,17.57
2018-01-12T20:31:15.636Z,13.43
2018-01-12T20:33:43.199Z,17.33
2018-01-12T20:36:10.734Z,15.93
2018-01-12T20:38:38.339Z,15.43
2018-01-12T20:41:05.915Z,11.63
2018-01-12T20:43:33.485Z,17.30
2018-01-12T20:46:01.018Z,11.87
2018-01-12T20:48:28.555Z,18.27
2018-01-12T20:50:56.158Z,17.60
2018-01-12T20:53:23.694Z,10.80
2018-01-12T20:55:51.271Z,14.27
2018-01-12T20:58:18.867Z,21.77
2018-01-12T21:00:46.453Z,16.57
2018-01-12T21:03:14.006Z,15.73
2018-01-12T21:05:41.599Z,15.10
2018-01-12T21:08:09.178Z,15.10
2018-01-12T21:10:36.706Z,17.40
2018-01-12T21:13:04.305Z,13.20
2018-01-12T21:15:31.865Z,20.03
2018-01-12T21:17:59.402Z,24.50
2018-01-12T21:20:27.059Z,17.37
2018-01-12T21:22:54.652Z,12.23
2018-01-12T21:25:22.255Z,20.83
2018-01-12T21:27:49.798Z,19.50
2018-01-12T21:30:17.327Z,17.80
2018-01-12T21:32:44.969Z,19.20
2018-01-12T21:35:12.498Z,16.57
2018-01-12T21:37:44.360Z,20.23
2018-01-12T21:40:11.910Z,16.70
2018-01-12T21:42:39.442Z,25.27
2018-01-12T21:45:07.018Z,19.47
2018-01-12T21:47:34.647Z,19.50
2018-01-12T21:50:02.262Z,13.07
2018-01-12T21:52:29.841Z,13.90
2018-01-12T21:54:57.480Z,16.80
2018-01-12T21:57:25.009Z,24.70
2018-01-12T21:59:52.651Z,18.20
2018-01-12T22:02:20.188Z,13.60
2018-01-12T22:04:47.778Z,15.57
2018-01-12T22:07:15.415Z,17.67
2018-01-12T22:09:43.014Z,18.57
2018-01-12T22:12:10.611Z,14.40
2018-01-12T22:14:38.191Z,21.17
2018-01-12T22:17:05.781Z,17.73
2018-01-12T22:19:33.309Z,13.83
2018-01-12T22:22:00.898Z,10.80
2018-01-12T22:24:28.425Z,16.83
2018-01-12T22:26:55.959Z,11.10
2018-01-12T22:29:23.597Z,13.13
2018-01-12T22:31:51.126Z,14.50
2018-01-12T22:34:18.723Z,11.23
2018-01-12T22:36:46.291Z,9.77
2018-01-12T22:39:13.885Z,19.70
2018-01-12T22:41:41.414Z,8.40
2018-01-12T22:44:09.054Z,12.73
2018-01-12T22:46:36.586Z,24.57
2018-01-12T22:49:04.207Z,15.87
2018-01-12T22:51:31.785Z,8.67
2018-01-12T22:53:59.378Z,11.00
2018-01-12T22:56:26.910Z,16.03
2018-01-12T22:58:54.488Z,15.53
2018-01-12T23:01:22.018Z,9.07
2018-01-12T23:03:49.603Z,13.40
2018-01-12T23:06:17.186Z,18.67
2018-01-12T23:08:44.718Z,25.53
2018-01-12T23:11:12.261Z,17.17
2018-01-12T23:13:39.838Z,16.80
2018-01-12T23:16:07.366Z,14.83
2018-01-12T23:18:34.897Z,29.57
2018-01-12T23:21:02.474Z,12.37
2018-01-12T23:23:30.015Z,26.63
2018-01-12T23:25:57.608Z,8.90
2018-01-12T23:28:25.186Z,19.70
2018-01-12T23:30:52.716Z,17.00
2018-01-12T23:33:20.250Z,12.97
2018-01-12T23:35:47.829Z,13.60
2018-01-12T23:38:15.366Z,11.20
2018-01-12T23:40:42.894Z,12.60
2018-01-12T23:43:10.530Z,17.60
2018-01-12T23:45:38.059Z,14.37
2018-01-12T23:48:05.686Z,13.10
2018-01-12T23:50:33.258Z,12.67
2018-01-12T23:53:00.790Z,16.07
2018-01-12T23:55:28.329Z,11.27
2018-01-12T23:57:55.913Z,13.20
